createdAt,value
2023-01-22T00:00:42.865Z,103107.53
2023-01-22T00:10:44.091Z,103110.16
2023-01-22T00:20:45.327Z,103123.25
2023-01-22T00:30:46.597Z,103116.28
2023-01-22T00:40:47.821Z,103094.50
2023-01-22T00:50:49.098Z,103107.56
2023-01-22T01:00:50.399Z,103096.22
2023-01-22T01:10:51.668Z,103083.16
2023-01-22T01:20:52.886Z,103080.50
2023-01-22T01:30:54.269Z,103079.66
2023-01-22T01:40:55.600Z,103060.47
2023-01-22T01:50:56.869Z,103037.78
2023-01-22T02:00:58.160Z,103029.06
2023-01-22T02:10:59.519Z,103031.69
2023-01-22T02:21:00.771Z,103025.56
2023-01-22T02:31:02.113Z,103016.88
2023-01-22T02:41:03.402Z,103022.09
2023-01-22T02:51:04.661Z,103018.59
2023-01-22T03:01:05.940Z,103019.50
2023-01-22T03:11:07.199Z,103010.75
2023-01-22T03:21:08.477Z,103021.22
2023-01-22T03:31:09.759Z,103005.53
2023-01-22T03:41:11.079Z,102997.72
2023-01-22T03:51:12.387Z,102989.00
2023-01-22T04:01:13.795Z,102984.63
2023-01-22T04:11:15.061Z,102991.59
2023-01-22T04:21:16.323Z,102991.59
2023-01-22T04:31:17.668Z,102978.50
2023-01-22T04:41:18.978Z,102978.50
2023-01-22T04:51:20.247Z,102973.28
2023-01-22T05:01:21.523Z,102977.66
2023-01-22T05:11:22.892Z,102974.19
2023-01-22T05:21:24.144Z,102975.03
2023-01-22T05:31:25.491Z,102985.50
2023-01-22T05:41:26.785Z,102992.47
2023-01-22T05:51:28.016Z,102999.44
2023-01-22T06:01:29.265Z,103007.28
2023-01-22T06:11:30.548Z,103012.50
2023-01-22T06:21:31.781Z,103009.03
2023-01-22T06:31:33.058Z,103007.28
2023-01-22T06:41:34.317Z,103012.50
2023-01-22T06:51:35.551Z,103018.59
2023-01-22T07:01:36.775Z,103032.53
2023-01-22T07:11:38.048Z,103022.97
2023-01-22T07:21:39.293Z,103025.59
2023-01-22T07:31:40.553Z,103031.69
2023-01-22T07:41:41.834Z,103032.53
2023-01-22T07:51:43.171Z,103033.44
2023-01-22T08:01:44.504Z,103032.56
2023-01-22T08:11:45.761Z,103048.22
2023-01-22T08:21:46.994Z,103046.50
2023-01-22T08:31:48.319Z,103060.44
2023-01-22T08:41:49.606Z,103063.94
2023-01-22T08:51:50.851Z,103068.28
2023-01-22T09:01:52.146Z,103065.66
2023-01-22T09:11:53.444Z,103063.91
2023-01-22T09:21:54.715Z,103071.78
2023-01-22T09:31:56.018Z,103067.41
2023-01-22T09:41:57.359Z,103075.25
2023-01-22T09:51:59.065Z,103083.09
2023-01-22T10:02:00.357Z,103080.50
2023-01-22T10:12:01.640Z,103087.47
2023-01-22T10:22:03.192Z,103095.31
2023-01-22T10:32:04.481Z,103090.09
2023-01-22T10:42:05.727Z,103077.88
2023-01-22T10:52:06.993Z,103089.22
2023-01-22T11:02:08.297Z,103097.94
2023-01-22T11:12:09.699Z,103068.31
2023-01-22T11:22:10.967Z,103062.22
2023-01-22T11:32:12.230Z,103063.06
2023-01-22T11:42:13.462Z,103046.50
2023-01-22T11:52:14.698Z,103042.13
2023-01-22T12:02:15.959Z,103036.06
2023-01-22T12:12:17.228Z,103031.69
2023-01-22T12:22:18.577Z,103022.97
2023-01-22T12:32:20.294Z,103019.50
2023-01-22T12:42:28.854Z,103021.19
2023-01-22T12:52:37.421Z,103030.81
2023-01-22T13:02:47.361Z,103040.41
2023-01-22T13:12:53.393Z,103050.88
2023-01-22T13:22:58.537Z,103049.13
2023-01-22T13:32:59.835Z,103048.25
2023-01-22T13:43:02.251Z,103044.78
2023-01-22T13:53:03.496Z,103051.72
2023-01-22T14:03:04.752Z,103059.56
2023-01-22T14:13:06.042Z,103063.97
2023-01-22T14:23:07.324Z,103070.06
2023-01-22T14:33:08.721Z,103071.81
2023-01-22T14:43:10.043Z,103086.63
2023-01-22T15:03:40.267Z,103089.22
2023-01-22T15:13:41.552Z,103086.63
2023-01-22T15:23:42.832Z,103083.13
2023-01-22T15:33:44.103Z,103091.00
2023-01-22T15:43:45.363Z,103091.84
2023-01-22T15:53:46.602Z,103104.94
2023-01-22T16:03:47.984Z,103104.06
2023-01-22T16:13:49.214Z,103098.84
2023-01-22T16:23:50.454Z,103105.78
2023-01-22T16:33:51.702Z,103104.94
2023-01-22T16:43:52.959Z,103117.09
2023-01-22T16:53:54.211Z,103122.34
2023-01-22T17:03:55.458Z,103126.72
2023-01-22T17:13:56.730Z,103115.38
2023-01-22T17:23:57.995Z,103131.06
2023-01-22T17:33:59.267Z,103138.91
2023-01-22T17:44:00.672Z,103142.38
2023-01-22T17:54:01.943Z,103149.38
2023-01-22T18:04:03.198Z,103129.31
2023-01-22T18:14:04.578Z,103148.47
2023-01-22T18:24:05.880Z,103158.06
2023-01-22T18:34:07.176Z,103160.69
2023-01-22T18:44:08.426Z,103156.31
2023-01-22T18:54:09.700Z,103151.09
2023-01-22T19:04:10.950Z,103152.84
2023-01-22T19:14:12.187Z,103166.75
2023-01-22T19:24:13.430Z,103171.13
2023-01-22T19:34:14.697Z,103175.47
2023-01-22T19:44:15.960Z,103179.84
2023-01-22T19:54:17.233Z,103185.91
2023-01-22T20:04:18.488Z,103185.06
2023-01-22T20:14:19.755Z,103204.22
2023-01-22T20:24:21.021Z,103199.84
2023-01-22T20:34:22.550Z,103212.91
2023-01-22T20:44:23.839Z,103215.53
2023-01-22T20:54:25.130Z,103217.28
2023-01-22T21:04:26.362Z,103213.81
2023-01-22T21:14:27.624Z,103219.03
2023-01-22T21:24:28.866Z,103212.03
2023-01-22T21:34:30.175Z,103208.56
2023-01-22T21:44:31.453Z,103212.91
2023-01-22T21:54:32.712Z,103218.13
2023-01-22T22:04:33.987Z,103228.56
2023-01-22T22:14:35.330Z,103237.25
2023-01-22T22:24:36.603Z,103242.53
2023-01-22T22:34:37.983Z,103247.78
2023-01-22T22:44:39.221Z,103254.69
2023-01-22T22:54:40.572Z,103253.84
2023-01-22T23:04:41.891Z,103262.56
2023-01-22T23:14:43.201Z,103266.91
2023-01-22T23:24:44.497Z,103263.47
2023-01-22T23:34:45.773Z,103263.47
2023-01-22T23:44:47.038Z,103260.88
2023-01-22T23:54:48.300Z,103261.72
